Time;durP1;ratioP1;P1;durP2;ratioP2;P2;SDS_P1;SDS_P2;PMS_P1;PMS_P2;Temp;Humidity;BMP_temperature;BMP_pressure;BME280_temperature;BME280_humidity;BME280_pressure;Samples;Min_cycle;Max_cycle;Signal;HPM_P1;HPM_P2
2021/07/13 00:00:19;;;;;;;15.90;14.60;;;23.40;99.90;;;;;;5039351;28;20451;-82
2021/07/13 00:02:46;;;;;;;16.87;15.37;;;23.40;99.90;;;;;;5032113;28;20443;-84
2021/07/13 00:05:16;;;;;;;15.43;13.93;;;23.40;99.90;;;;;;5033775;28;20467;-82
2021/07/13 00:07:51;;;;;;;16.83;15.43;;;23.40;99.90;;;;;;5034141;28;20454;-84
2021/07/13 00:10:20;;;;;;;15.57;14.20;;;23.40;99.90;;;;;;5039169;28;20478;-82
2021/07/13 00:12:50;;;;;;;15.23;14.03;;;23.40;99.90;;;;;;5031482;28;20424;-83
2021/07/13 00:15:21;;;;;;;14.70;13.40;;;23.50;99.90;;;;;;5030998;28;20976;-83
2021/07/13 00:17:49;;;;;;;15.10;13.90;;;23.50;99.90;;;;;;5031304;28;20447;-83
2021/07/13 00:20:16;;;;;;;17.40;15.50;;;23.40;99.90;;;;;;5036435;28;20449;-84
2021/07/13 00:22:44;;;;;;;17.33;15.90;;;23.40;99.90;;;;;;5023848;28;20448;-84
2021/07/13 00:25:12;;;;;;;17.53;15.83;;;23.40;99.90;;;;;;5032409;28;20830;-84
2021/07/13 00:27:40;;;;;;;16.83;15.50;;;23.40;99.90;;;;;;5038763;28;20447;-84
2021/07/13 00:30:10;;;;;;;17.37;15.60;;;23.40;99.90;;;;;;5021200;28;20487;-84
2021/07/13 00:32:39;;;;;;;18.73;17.13;;;23.30;99.90;;;;;;5040377;28;20451;-84
2021/07/13 00:35:08;;;;;;;16.97;15.47;;;23.20;99.90;;;;;;5025926;28;20472;-84
2021/07/13 00:37:35;;;;;;;14.23;13.00;;;23.20;99.90;;;;;;5041490;28;20447;-84
2021/07/13 00:40:03;;;;;;;18.40;16.70;;;23.20;99.90;;;;;;5038396;28;20497;-84
2021/07/13 00:42:30;;;;;;;16.90;15.60;;;23.20;99.90;;;;;;5033871;28;20478;-84
2021/07/13 00:44:57;;;;;;;17.77;16.07;;;23.20;99.90;;;;;;5036987;28;20470;-84
2021/07/13 00:47:26;;;;;;;17.40;15.80;;;23.20;99.90;;;;;;5030236;28;20440;-84
2021/07/13 00:49:55;;;;;;;18.10;16.50;;;23.20;99.90;;;;;;5034675;28;20462;-84
2021/07/13 00:52:22;;;;;;;15.33;13.90;;;23.20;99.90;;;;;;5035266;28;20451;-84
2021/07/13 00:54:50;;;;;;;15.20;14.00;;;23.10;99.90;;;;;;5037863;28;20467;-84
2021/07/13 00:57:19;;;;;;;15.50;14.30;;;23.10;99.90;;;;;;5030442;28;20637;-84
2021/07/13 00:59:47;;;;;;;17.97;16.37;;;23.10;99.90;;;;;;5019855;28;20444;-84
2021/07/13 01:02:16;;;;;;;16.73;15.40;;;23.10;99.90;;;;;;5030210;28;20454;-83
2021/07/13 01:04:47;;;;;;;15.60;14.30;;;23.10;99.90;;;;;;5035558;28;20464;-84
2021/07/13 01:07:21;;;;;;;19.00;17.40;;;23.10;99.90;;;;;;5032678;28;20452;-85
2021/07/13 01:09:59;;;;;;;17.53;16.13;;;23.00;99.90;;;;;;5029589;28;20459;-84
2021/07/13 01:12:37;;;;;;;18.57;16.90;;;23.00;99.90;;;;;;5032130;28;20451;-84
2021/07/13 01:15:07;;;;;;;17.47;16.10;;;23.00;99.90;;;;;;5033566;28;21138;-83
2021/07/13 01:17:40;;;;;;;16.57;15.07;;;22.90;99.90;;;;;;5029716;28;20476;-84
2021/07/13 01:20:55;;;;;;;19.07;17.50;;;22.90;99.90;;;;;;5039398;28;20455;-84
2021/07/13 01:23:36;;;;;;;17.70;16.20;;;22.80;99.90;;;;;;4969888;28;20457;-84
2021/07/13 01:26:06;;;;;;;20.67;18.97;;;22.80;99.90;;;;;;4972985;28;20484;-84
2021/07/13 01:28:40;;;;;;;19.63;18.10;;;22.80;99.90;;;;;;5004347;28;20451;-84
2021/07/13 01:31:12;;;;;;;16.60;15.30;;;22.80;99.90;;;;;;5036120;28;20478;-83
2021/07/13 01:33:42;;;;;;;19.43;17.50;;;22.70;99.90;;;;;;5027911;28;20999;-84
2021/07/13 01:36:15;;;;;;;18.27;16.67;;;22.60;99.90;;;;;;5030357;28;20462;-83
2021/07/13 01:38:44;;;;;;;20.23;18.13;;;22.60;99.90;;;;;;5030171;28;20448;-83
2021/07/13 01:41:14;;;;;;;18.77;17.27;;;22.60;99.90;;;;;;5037527;28;20455;-84
2021/07/13 01:43:45;;;;;;;17.60;16.20;;;22.60;99.90;;;;;;5030781;28;20435;-84
2021/07/13 01:46:14;;;;;;;17.27;15.87;;;22.50;99.90;;;;;;5039463;28;20466;-84
2021/07/13 01:48:42;;;;;;;18.80;17.07;;;22.50;99.90;;;;;;5033990;28;20455;-84
2021/07/13 01:51:10;;;;;;;18.87;17.17;;;22.40;99.90;;;;;;5031390;28;20490;-84
2021/07/13 01:53:38;;;;;;;18.00;16.40;;;22.40;99.90;;;;;;5031231;28;20458;-84
2021/07/13 01:56:08;;;;;;;17.23;15.93;;;22.30;99.90;;;;;;5029444;28;20502;-84
2021/07/13 01:58:37;;;;;;;20.03;18.20;;;22.30;99.90;;;;;;5031166;28;20484;-83
2021/07/13 02:01:10;;;;;;;19.27;17.47;;;22.30;99.90;;;;;;5038003;28;20440;-83
2021/07/13 02:03:40;;;;;;;19.97;17.90;;;22.20;99.90;;;;;;5044713;28;20810;-84
2021/07/13 02:06:08;;;;;;;18.40;16.80;;;22.10;99.90;;;;;;5030515;28;20834;-84
2021/07/13 02:08:38;;;;;;;21.90;19.80;;;22.20;99.90;;;;;;5038214;28;20452;-84
2021/07/13 02:11:07;;;;;;;18.13;16.63;;;22.10;99.90;;;;;;5031472;28;20479;-83
2021/07/13 02:13:34;;;;;;;18.17;16.63;;;22.20;99.90;;;;;;5031780;28;20464;-83
2021/07/13 02:16:01;;;;;;;18.50;16.80;;;22.20;99.90;;;;;;5033467;28;20475;-83
2021/07/13 02:18:30;;;;;;;18.50;16.90;;;22.20;99.90;;;;;;5038211;28;20465;-83
2021/07/13 02:20:57;;;;;;;20.30;18.50;;;22.20;99.90;;;;;;5029389;28;20446;-82
2021/07/13 02:23:25;;;;;;;19.43;17.83;;;22.30;99.90;;;;;;5036896;28;20450;-83
2021/07/13 02:25:56;;;;;;;21.20;19.27;;;22.30;99.90;;;;;;5032322;28;20479;-83
2021/07/13 02:28:30;;;;;;;19.20;17.50;;;22.30;99.90;;;;;;5023934;28;20471;-83
2021/07/13 02:31:03;;;;;;;20.13;18.23;;;22.20;99.90;;;;;;5038748;28;20494;-83
2021/07/13 02:33:37;;;;;;;18.23;16.63;;;22.20;99.90;;;;;;5036009;28;20530;-83
2021/07/13 02:36:12;;;;;;;19.70;17.90;;;22.30;99.90;;;;;;5035741;28;20499;-82
2021/07/13 02:38:40;;;;;;;18.03;16.53;;;22.30;99.90;;;;;;5025527;28;20810;-82
2021/07/13 02:41:08;;;;;;;17.40;15.80;;;22.20;99.90;;;;;;5033305;28;20428;-83
2021/07/13 02:43:36;;;;;;;17.03;15.63;;;22.30;99.90;;;;;;5039198;28;20431;-83
2021/07/13 02:46:04;;;;;;;20.00;18.10;;;22.30;99.90;;;;;;5047242;28;20471;-85
2021/07/13 02:48:36;;;;;;;15.53;14.03;;;22.30;99.90;;;;;;5040790;28;20435;-83
2021/07/13 02:51:05;;;;;;;17.90;16.07;;;22.30;99.90;;;;;;5042695;28;20513;-83
2021/07/13 02:53:34;;;;;;;18.83;17.27;;;22.30;99.90;;;;;;5046516;28;20443;-83
2021/07/13 02:56:03;;;;;;;18.17;16.43;;;22.40;99.90;;;;;;5037332;28;20474;-83
2021/07/13 02:58:32;;;;;;;18.73;17.13;;;22.50;99.90;;;;;;5030673;28;20495;-83
2021/07/13 03:01:00;;;;;;;19.63;17.90;;;22.40;99.90;;;;;;5036480;28;20458;-83
2021/07/13 03:03:27;;;;;;;18.73;17.10;;;22.40;99.90;;;;;;5045086;28;20457;-83
2021/07/13 03:05:56;;;;;;;20.30;18.60;;;22.40;99.90;;;;;;5034470;28;20459;-83
2021/07/13 03:08:24;;;;;;;20.60;18.63;;;22.40;99.90;;;;;;5027373;28;20466;-83
2021/07/13 03:10:54;;;;;;;19.80;18.20;;;22.30;99.90;;;;;;5032574;28;21106;-82
2021/07/13 03:13:22;;;;;;;20.77;18.97;;;22.20;99.90;;;;;;5036947;28;20454;-83
2021/07/13 03:15:50;;;;;;;17.87;16.03;;;22.20;99.90;;;;;;5040765;28;20447;-84
2021/07/13 03:18:17;;;;;;;18.20;16.60;;;22.20;99.90;;;;;;5050110;28;20442;-83
2021/07/13 03:20:47;;;;;;;19.10;17.50;;;22.10;99.90;;;;;;5048250;28;20582;-83
2021/07/13 03:23:17;;;;;;;19.00;17.30;;;22.20;99.90;;;;;;5049293;28;20511;-83
2021/07/13 03:25:47;;;;;;;19.40;17.80;;;22.10;99.90;;;;;;5038247;28;20466;-83
2021/07/13 03:28:15;;;;;;;18.97;17.37;;;22.00;99.90;;;;;;5042804;28;20451;-83
2021/07/13 03:30:44;;;;;;;20.77;18.93;;;22.10;99.90;;;;;;5046208;28;20438;-83
2021/07/13 03:33:12;;;;;;;20.13;18.10;;;22.10;99.90;;;;;;5044328;28;20452;-83
2021/07/13 03:35:39;;;;;;;22.03;20.00;;;22.00;99.90;;;;;;5045766;28;20463;-83
2021/07/13 03:38:07;;;;;;;20.80;19.10;;;21.90;99.90;;;;;;5046258;28;20430;-83
2021/07/13 03:40:35;;;;;;;18.73;16.93;;;21.90;99.90;;;;;;5050270;28;20472;-83
2021/07/13 03:43:03;;;;;;;19.03;17.37;;;22.00;99.90;;;;;;5050960;28;20450;-83
2021/07/13 03:45:31;;;;;;;21.03;19.17;;;21.90;99.90;;;;;;5049239;28;20552;-83
2021/07/13 03:48:00;;;;;;;19.57;17.73;;;21.90;99.90;;;;;;5056359;28;20437;-83
2021/07/13 03:50:31;;;;;;;19.73;18.03;;;21.90;99.90;;;;;;5023385;28;20447;-83
2021/07/13 03:52:58;;;;;;;20.57;18.83;;;21.80;99.90;;;;;;5024770;28;20479;-84
2021/07/13 03:55:25;;;;;;;23.07;20.77;;;21.80;99.90;;;;;;5029472;28;20501;-83
2021/07/13 03:57:54;;;;;;;20.43;18.53;;;21.80;99.90;;;;;;5025078;28;20463;-83
2021/07/13 04:00:37;;;;;;;19.20;17.53;;;21.70;99.90;;;;;;5030481;28;20451;-83
2021/07/13 04:03:04;;;;;;;23.27;21.27;;;21.70;99.90;;;;;;5027902;28;20495;-83
2021/07/13 04:05:32;;;;;;;19.30;17.70;;;21.70;99.90;;;;;;5026487;28;20506;-83
2021/07/13 04:07:59;;;;;;;18.00;16.30;;;21.80;99.90;;;;;;5033188;28;20450;-84
2021/07/13 04:13:13;;;;;;;21.03;19.23;;;22.10;99.90;;;;;;5032198;28;20482;-84
2021/07/13 04:15:40;;;;;;;19.23;17.47;;;22.30;99.90;;;;;;5037343;28;20513;-83
2021/07/13 04:18:08;;;;;;;20.47;18.53;;;22.40;99.90;;;;;;5037998;28;20448;-83
2021/07/13 04:20:35;;;;;;;18.87;17.37;;;22.50;99.90;;;;;;5039587;28;20497;-84
2021/07/13 04:23:02;;;;;;;20.63;18.83;;;22.70;99.90;;;;;;5033671;28;20448;-84
2021/07/13 04:25:29;;;;;;;19.40;17.70;;;23.20;99.90;;;;;;5033107;28;20980;-84
2021/07/13 04:27:57;;;;;;;15.70;14.30;;;23.70;99.90;;;;;;5023216;28;20452;-84
2021/07/13 04:30:25;;;;;;;18.53;16.83;;;24.50;99.90;;;;;;5026171;28;20444;-84
2021/07/13 04:32:52;;;;;;;18.50;16.80;;;25.30;99.90;;;;;;5031072;28;20481;-84
2021/07/13 04:35:19;;;;;;;17.37;15.97;;;25.80;99.90;;;;;;5040028;28;20488;-85
2021/07/13 04:37:46;;;;;;;18.20;16.60;;;26.50;99.90;;;;;;5038862;28;20451;-83
2021/07/13 04:40:14;;;;;;;16.33;14.53;;;27.20;99.90;;;;;;5034870;28;20440;-83
2021/07/13 04:42:41;;;;;;;14.67;13.57;;;27.90;99.90;;;;;;5041478;28;20453;-83
2021/07/13 04:45:09;;;;;;;17.60;16.20;;;28.50;99.90;;;;;;5038512;28;20475;-83
2021/07/13 04:47:38;;;;;;;17.07;15.67;;;28.90;99.90;;;;;;5037847;28;20443;-84
2021/07/13 04:50:06;;;;;;;16.30;14.87;;;29.10;99.80;;;;;;5043016;28;20435;-84
2021/07/13 04:52:33;;;;;;;19.50;16.77;;;29.20;99.00;;;;;;5034260;28;20497;-84
2021/07/13 04:55:00;;;;;;;17.80;16.00;;;29.00;98.80;;;;;;5039608;28;20924;-84
2021/07/13 04:57:28;;;;;;;16.13;14.83;;;28.50;99.80;;;;;;5038811;28;20997;-84
2021/07/13 04:59:55;;;;;;;17.50;16.10;;;28.30;99.90;;;;;;5028433;28;20459;-85
2021/07/13 05:02:22;;;;;;;15.20;13.90;;;28.10;99.90;;;;;;5027285;28;20470;-84
2021/07/13 05:04:51;;;;;;;16.00;14.50;;;27.60;99.90;;;;;;5029065;28;20475;-84
2021/07/13 05:07:18;;;;;;;16.97;15.47;;;27.20;99.90;;;;;;5033401;28;20447;-84
2021/07/13 05:09:45;;;;;;;16.90;15.50;;;26.80;99.90;;;;;;5031750;28;20443;-85
2021/07/13 05:12:12;;;;;;;18.50;16.90;;;26.60;99.90;;;;;;5031310;28;20489;-84
2021/07/13 05:14:39;;;;;;;13.40;12.30;;;26.20;99.90;;;;;;5030384;28;20485;-84
2021/07/13 05:17:06;;;;;;;19.27;17.50;;;26.10;99.90;;;;;;5042539;28;20457;-84
2021/07/13 05:19:34;;;;;;;18.70;17.10;;;26.00;99.90;;;;;;5035041;28;20455;-84
2021/07/13 05:22:05;;;;;;;19.00;17.30;;;25.80;99.90;;;;;;5039187;28;20447;-84
2021/07/13 05:24:32;;;;;;;17.83;16.13;;;25.60;99.90;;;;;;5038829;28;20810;-83
2021/07/13 05:27:00;;;;;;;15.73;14.50;;;25.60;99.90;;;;;;5034474;28;20453;-84
2021/07/13 05:29:27;;;;;;;19.10;17.50;;;25.50;99.90;;;;;;5048530;28;20492;-84
2021/07/13 05:31:54;;;;;;;17.60;16.00;;;25.30;99.90;;;;;;5040649;28;20577;-84
2021/07/13 05:34:31;;;;;;;17.73;16.23;;;25.20;99.90;;;;;;5048642;28;20585;-84
2021/07/13 05:37:07;;;;;;;18.23;16.60;;;25.10;99.90;;;;;;5038196;28;20451;-85
2021/07/13 05:39:58;;;;;;;18.77;17.00;;;25.00;99.90;;;;;;5040016;28;20450;-84
2021/07/13 05:42:57;;;;;;;17.50;15.90;;;25.10;99.90;;;;;;5044416;28;20452;-85
2021/07/13 05:45:31;;;;;;;15.93;14.60;;;25.20;99.90;;;;;;5033084;28;20475;-85
2021/07/13 05:47:58;;;;;;;15.70;14.30;;;25.80;99.90;;;;;;5041183;28;20447;-86
2021/07/13 05:50:25;;;;;;;18.20;16.57;;;26.40;99.90;;;;;;5034086;28;20451;-85
2021/07/13 05:52:52;;;;;;;16.67;15.27;;;26.90;99.90;;;;;;5020626;28;20519;-86
2021/07/13 05:55:21;;;;;;;17.00;15.40;;;27.20;99.90;;;;;;5036006;28;20480;-85
2021/07/13 05:57:48;;;;;;;17.67;16.17;;;27.20;99.90;;;;;;5029118;28;20452;-85
2021/07/13 06:00:16;;;;;;;17.13;15.33;;;27.10;99.90;;;;;;5037762;28;20443;-81
2021/07/13 06:02:43;;;;;;;17.00;15.40;;;27.30;99.90;;;;;;5041027;28;20893;-84
2021/07/13 06:05:11;;;;;;;15.30;13.87;;;27.60;99.90;;;;;;5032319;28;20482;-83
2021/07/13 06:07:42;;;;;;;14.47;13.33;;;27.80;99.90;;;;;;5029363;28;20458;-84
2021/07/13 06:10:11;;;;;;;13.77;12.67;;;28.00;99.90;;;;;;5026963;28;20514;-84
2021/07/13 06:12:39;;;;;;;17.27;15.57;;;27.90;99.90;;;;;;5029147;28;20502;-84
2021/07/13 06:15:08;;;;;;;15.33;14.03;;;27.80;99.90;;;;;;5036625;28;20466;-84
2021/07/13 06:17:36;;;;;;;14.10;12.90;;;27.60;99.90;;;;;;5032064;28;20462;-84
2021/07/13 06:20:04;;;;;;;53.57;17.03;;;27.70;99.90;;;;;;5042489;28;20474;-84
2021/07/13 06:22:31;;;;;;;19.07;14.70;;;27.80;99.90;;;;;;5040044;28;20441;-85
2021/07/13 06:24:58;;;;;;;15.10;13.70;;;28.10;99.90;;;;;;5024079;28;20460;-85
2021/07/13 06:27:25;;;;;;;13.27;11.97;;;28.10;99.10;;;;;;5032829;28;20458;-84
2021/07/13 06:29:53;;;;;;;15.40;14.03;;;28.20;99.40;;;;;;5031343;28;20467;-85
2021/07/13 06:32:21;;;;;;;14.53;13.07;;;28.50;98.90;;;;;;5034071;28;20840;-84
2021/07/13 06:34:48;;;;;;;14.13;12.93;;;28.80;97.60;;;;;;5030121;28;20474;-84
2021/07/13 06:37:15;;;;;;;16.80;15.03;;;29.30;97.20;;;;;;5031145;28;20440;-84
2021/07/13 06:39:42;;;;;;;16.00;14.60;;;29.80;96.20;;;;;;5032768;28;20451;-84
2021/07/13 06:42:09;;;;;;;14.87;13.10;;;29.90;96.00;;;;;;5032138;28;20444;-85
2021/07/13 06:44:36;;;;;;;14.30;12.90;;;30.20;96.20;;;;;;5032370;28;20518;-85
2021/07/13 06:47:05;;;;;;;14.63;13.43;;;30.90;94.80;;;;;;5026733;28;20447;-84
2021/07/13 06:49:32;;;;;;;15.17;13.57;;;31.40;93.50;;;;;;5031621;28;20519;-85
2021/07/13 06:51:59;;;;;;;16.07;14.67;;;32.00;92.60;;;;;;5031643;28;20462;-85
2021/07/13 06:54:27;;;;;;;15.43;14.13;;;32.30;91.50;;;;;;5030413;28;21006;-84
2021/07/13 06:56:54;;;;;;;15.07;13.73;;;32.60;91.30;;;;;;5032252;28;20455;-85
2021/07/13 06:59:21;;;;;;;14.43;13.10;;;33.10;91.20;;;;;;5037840;28;20446;-84
2021/07/13 07:01:48;;;;;;;13.40;12.30;;;33.70;89.00;;;;;;5035094;28;20443;-84
2021/07/13 07:04:16;;;;;;;17.40;13.67;;;34.50;86.70;;;;;;5028312;28;20463;-85
2021/07/13 07:06:43;;;;;;;14.80;13.30;;;34.70;85.00;;;;;;5033643;28;20471;-84
2021/07/13 07:09:10;;;;;;;12.70;11.60;;;35.30;84.80;;;;;;5038236;28;20447;-84
2021/07/13 07:11:38;;;;;;;12.33;11.33;;;35.60;82.60;;;;;;5030453;28;20454;-85
2021/07/13 07:14:05;;;;;;;12.50;11.40;;;36.10;80.30;;;;;;5031033;28;20546;-85
2021/07/13 07:16:32;;;;;;;13.20;12.20;;;36.50;78.50;;;;;;5032065;28;20455;-85
2021/07/13 07:18:59;;;;;;;19.90;18.30;;;36.80;77.30;;;;;;5032093;28;20545;-85
2021/07/13 07:21:27;;;;;;;13.20;12.10;;;36.70;77.00;;;;;;5037947;28;20455;-84
2021/07/13 07:23:55;;;;;;;12.10;11.20;;;36.70;76.40;;;;;;5026417;28;20941;-85
2021/07/13 07:26:22;;;;;;;11.70;10.70;;;36.70;76.40;;;;;;5033370;28;20530;-85
2021/07/13 07:28:49;;;;;;;11.50;10.30;;;36.80;76.20;;;;;;5034535;28;20481;-85
2021/07/13 07:31:18;;;;;;;11.00;9.93;;;37.00;75.30;;;;;;5034638;28;20804;-85
2021/07/13 07:33:45;;;;;;;11.83;10.63;;;37.10;74.30;;;;;;5033206;28;20505;-85
2021/07/13 07:36:12;;;;;;;11.73;10.83;;;37.30;74.80;;;;;;5038943;28;20457;-85
2021/07/13 07:38:41;;;;;;;11.27;10.33;;;37.80;71.50;;;;;;5032190;28;20436;-85
2021/07/13 07:41:08;;;;;;;9.87;9.17;;;37.60;72.40;;;;;;5039170;28;20451;-85
2021/07/13 07:43:35;;;;;;;11.40;10.30;;;38.00;71.80;;;;;;5033681;28;20448;-85
2021/07/13 07:46:02;;;;;;;11.50;10.60;;;38.70;68.80;;;;;;5044616;28;20490;-85
2021/07/13 07:48:29;;;;;;;10.97;9.83;;;38.80;68.00;;;;;;5038334;28;20455;-85
2021/07/13 07:50:56;;;;;;;9.90;9.20;;;38.30;68.20;;;;;;5039000;28;20438;-85
2021/07/13 07:53:24;;;;;;;10.57;9.40;;;38.60;68.30;;;;;;5037650;28;20483;-85
2021/07/13 07:55:52;;;;;;;8.67;7.87;;;38.80;68.10;;;;;;5030594;28;20468;-85
2021/07/13 07:58:19;;;;;;;8.57;7.87;;;39.20;66.50;;;;;;5039032;28;20450;-85
2021/07/13 08:00:47;;;;;;;10.53;9.63;;;39.40;66.30;;;;;;5032648;28;20448;-85
2021/07/13 08:03:14;;;;;;;10.20;9.43;;;39.00;66.60;;;;;;5024559;28;20443;-85
2021/07/13 08:05:42;;;;;;;10.13;9.10;;;38.10;67.60;;;;;;5034304;28;20463;-85
2021/07/13 08:08:10;;;;;;;10.57;9.47;;;37.30;69.20;;;;;;5039087;28;20522;-85
2021/07/13 08:10:38;;;;;;;10.63;9.63;;;36.40;72.60;;;;;;5035768;28;20454;-85
2021/07/13 08:13:06;;;;;;;10.77;9.93;;;35.80;73.20;;;;;;5023865;28;20487;-85
2021/07/13 08:15:33;;;;;;;11.80;10.27;;;35.50;74.50;;;;;;5038224;28;20470;-85
2021/07/13 08:18:00;;;;;;;9.63;8.93;;;36.50;72.80;;;;;;5022810;28;20443;-85
2021/07/13 08:20:27;;;;;;;9.33;8.43;;;37.20;72.50;;;;;;5039984;28;20442;-85
2021/07/13 08:22:54;;;;;;;9.57;8.67;;;38.00;69.20;;;;;;5026484;28;20435;-85
2021/07/13 08:25:22;;;;;;;8.37;7.77;;;39.00;66.60;;;;;;5032367;28;20469;-85
2021/07/13 08:27:50;;;;;;;8.83;7.23;;;39.00;64.40;;;;;;5029098;28;20448;-85
2021/07/13 08:30:19;;;;;;;7.93;7.23;;;38.90;64.00;;;;;;5037595;28;20463;-84
2021/07/13 08:32:46;;;;;;;8.17;7.57;;;39.10;64.40;;;;;;5035347;28;20483;-84
2021/07/13 08:35:14;;;;;;;8.97;8.23;;;38.60;64.90;;;;;;5038145;28;20471;-84
2021/07/13 08:37:41;;;;;;;10.73;9.90;;;37.60;66.80;;;;;;5038758;28;20455;-86
2021/07/13 08:40:10;;;;;;;13.30;10.37;;;36.70;70.00;;;;;;5033269;28;20440;-85
2021/07/13 08:42:38;;;;;;;11.00;10.00;;;36.20;71.70;;;;;;5037160;28;20438;-85
2021/07/13 08:45:10;;;;;;;10.50;9.27;;;35.30;72.90;;;;;;5035835;28;20478;-85
2021/07/13 08:47:40;;;;;;;8.30;7.70;;;34.70;75.70;;;;;;5026356;28;20487;-85
2021/07/13 08:50:09;;;;;;;11.87;10.90;;;34.90;76.70;;;;;;5038495;28;20451;-85
2021/07/13 08:52:37;;;;;;;8.37;7.67;;;35.00;75.50;;;;;;5028751;28;20547;-85
2021/07/13 08:55:06;;;;;;;8.40;7.70;;;35.30;72.60;;;;;;5034354;28;20466;-85
2021/07/13 08:57:33;;;;;;;10.23;9.33;;;35.00;74.00;;;;;;5030611;28;20815;-85
2021/07/13 09:00:00;;;;;;;10.77;9.43;;;34.90;75.50;;;;;;5035650;28;20450;-85
2021/07/13 09:02:27;;;;;;;10.83;9.57;;;34.60;75.40;;;;;;5032630;28;20486;-85
2021/07/13 09:04:56;;;;;;;8.70;8.10;;;34.70;76.80;;;;;;5036794;28;20467;-85
2021/07/13 09:07:23;;;;;;;9.17;8.40;;;34.60;76.10;;;;;;5028166;28;20841;-86
2021/07/13 09:09:53;;;;;;;10.43;9.47;;;34.50;76.60;;;;;;5034030;28;20457;-85
2021/07/13 09:12:22;;;;;;;10.83;9.80;;;34.80;76.40;;;;;;5030750;28;20973;-85
2021/07/13 09:15:00;;;;;;;9.03;7.67;;;34.60;76.70;;;;;;5033656;28;20491;-86
2021/07/13 09:17:38;;;;;;;11.33;8.83;;;34.50;75.40;;;;;;5033809;28;20462;-85
2021/07/13 09:20:21;;;;;;;7.43;6.83;;;34.50;75.50;;;;;;5024076;28;20437;-85
2021/07/13 09:22:56;;;;;;;10.47;6.87;;;34.90;75.00;;;;;;5024914;28;20447;-84
2021/07/13 09:25:34;;;;;;;7.37;6.67;;;35.80;72.20;;;;;;5018152;28;20967;-84
2021/07/13 09:28:17;;;;;;;8.50;7.90;;;35.80;71.00;;;;;;5029347;28;20454;-84
2021/07/13 09:30:46;;;;;;;8.20;7.47;;;36.60;71.40;;;;;;5037414;28;20462;-85
2021/07/13 09:33:22;;;;;;;8.83;7.53;;;36.70;70.10;;;;;;5033865;28;20498;-84
2021/07/13 09:36:02;;;;;;;8.17;7.60;;;37.10;69.00;;;;;;5040657;28;20481;-85
2021/07/13 09:38:31;;;;;;;7.10;6.40;;;37.40;69.00;;;;;;5028316;28;20443;-84
2021/07/13 09:41:06;;;;;;;7.17;6.57;;;37.10;68.80;;;;;;5035056;28;20477;-84
2021/07/13 09:43:45;;;;;;;9.47;8.67;;;37.10;69.30;;;;;;5031889;28;20443;-84
2021/07/13 09:46:30;;;;;;;9.87;9.17;;;37.30;69.90;;;;;;5040787;28;20450;-85
2021/07/13 09:49:12;;;;;;;11.20;8.90;;;37.80;67.40;;;;;;5027049;28;20455;-85
2021/07/13 09:51:42;;;;;;;9.47;8.50;;;37.80;67.80;;;;;;5037184;28;20449;-85
2021/07/13 09:54:34;;;;;;;9.50;8.53;;;38.00;67.30;;;;;;5031227;28;20491;-85
2021/07/13 09:57:03;;;;;;;9.33;8.60;;;37.40;68.00;;;;;;5028674;28;20467;-84
2021/07/13 09:59:30;;;;;;;8.03;7.40;;;36.90;68.40;;;;;;5037372;28;20451;-83
2021/07/13 10:01:58;;;;;;;8.67;7.83;;;36.30;68.20;;;;;;5032062;28;20450;-84
2021/07/13 10:04:26;;;;;;;7.57;7.07;;;36.50;69.00;;;;;;5038578;28;20492;-85
2021/07/13 10:06:59;;;;;;;8.50;7.60;;;36.50;68.50;;;;;;5034731;28;20971;-84
2021/07/13 10:09:29;;;;;;;9.47;8.77;;;35.40;70.30;;;;;;5023578;28;20446;-85
2021/07/13 10:11:57;;;;;;;10.80;9.10;;;34.60;73.10;;;;;;5035715;28;20455;-85
2021/07/13 10:14:25;;;;;;;10.50;9.50;;;33.90;75.30;;;;;;5031422;28;20530;-85
2021/07/13 10:16:53;;;;;;;9.33;8.53;;;33.30;76.80;;;;;;5036955;28;20804;-85
2021/07/13 10:19:21;;;;;;;9.23;8.13;;;33.00;78.60;;;;;;5023277;28;20468;-85
2021/07/13 10:21:49;;;;;;;8.80;8.07;;;32.60;78.80;;;;;;5029237;28;20447;-84
2021/07/13 10:24:23;;;;;;;8.20;7.50;;;32.00;79.80;;;;;;5035167;28;20962;-85
2021/07/13 10:26:52;;;;;;;9.00;8.20;;;31.60;81.60;;;;;;5025822;28;20467;-85
2021/07/13 10:29:40;;;;;;;9.63;8.63;;;31.40;81.70;;;;;;5034467;28;20451;-84
2021/07/13 10:32:09;;;;;;;7.57;6.97;;;31.30;82.80;;;;;;5029628;28;20917;-85
2021/07/13 10:34:49;;;;;;;7.93;7.23;;;31.10;82.30;;;;;;5038880;28;20487;-84
2021/07/13 10:37:30;;;;;;;7.87;7.07;;;30.80;82.50;;;;;;5035262;28;20446;-85
2021/07/13 10:40:01;;;;;;;8.73;7.93;;;30.60;83.40;;;;;;5031342;28;20461;-85
2021/07/13 10:42:47;;;;;;;7.13;6.63;;;30.50;84.30;;;;;;5036118;28;20520;-85
2021/07/13 10:45:18;;;;;;;9.37;8.43;;;30.20;83.30;;;;;;5032215;28;20494;-85
2021/07/13 10:48:05;;;;;;;8.30;7.60;;;30.00;84.70;;;;;;5036399;28;20443;-84
2021/07/13 10:50:40;;;;;;;7.50;6.80;;;30.00;84.40;;;;;;5029661;28;20863;-85
2021/07/13 10:53:14;;;;;;;7.00;6.40;;;29.90;85.20;;;;;;5037652;28;20439;-84
2021/07/13 10:55:51;;;;;;;9.50;6.63;;;30.10;85.10;;;;;;5023586;28;20470;-85
2021/07/13 10:58:24;;;;;;;7.00;6.40;;;30.10;85.00;;;;;;5031397;28;20468;-85
2021/07/13 11:01:11;;;;;;;9.97;7.53;;;30.30;85.10;;;;;;5033092;28;20450;-85
2021/07/13 11:03:55;;;;;;;9.03;7.80;;;30.30;84.70;;;;;;5025957;28;20518;-86
2021/07/13 11:06:54;;;;;;;8.10;7.30;;;30.30;84.30;;;;;;5017773;28;20542;-84
2021/07/13 11:09:32;;;;;;;7.37;6.87;;;30.40;84.10;;;;;;5030143;28;20833;-84
2021/07/13 11:12:15;;;;;;;7.60;6.67;;;30.60;82.10;;;;;;5043148;28;20443;-84
2021/07/13 11:15:04;;;;;;;7.60;6.90;;;30.70;81.20;;;;;;5040679;28;20493;-84
2021/07/13 11:17:32;;;;;;;6.90;6.30;;;30.80;82.40;;;;;;5039025;28;20442;-84
2021/07/13 11:20:11;;;;;;;8.57;7.90;;;30.80;82.50;;;;;;5030562;28;20865;-84
2021/07/13 11:22:43;;;;;;;8.07;7.10;;;30.60;83.40;;;;;;5042034;28;20428;-84
2021/07/13 11:25:24;;;;;;;7.20;6.50;;;30.50;83.50;;;;;;5038445;28;20466;-85
2021/07/13 11:28:06;;;;;;;8.17;7.60;;;30.80;82.70;;;;;;5036866;28;20455;-85
2021/07/13 11:30:34;;;;;;;8.70;8.00;;;30.70;81.80;;;;;;5028867;28;20450;-85
2021/07/13 11:33:06;;;;;;;8.30;7.60;;;30.90;82.40;;;;;;5039705;28;20525;-85
2021/07/13 11:35:34;;;;;;;7.90;7.20;;;30.80;83.00;;;;;;5034834;28;21093;-85
2021/07/13 11:38:01;;;;;;;9.83;7.73;;;30.80;83.20;;;;;;5040888;28;20451;-85
2021/07/13 11:40:28;;;;;;;8.30;7.60;;;30.90;83.00;;;;;;5037407;28;20447;-85
2021/07/13 11:43:00;;;;;;;8.37;7.67;;;31.00;82.80;;;;;;5037080;28;20458;-84
2021/07/13 11:45:30;;;;;;;8.53;7.83;;;31.10;82.40;;;;;;5035036;28;20487;-86
2021/07/13 11:48:07;;;;;;;7.30;6.70;;;31.00;83.40;;;;;;5038914;28;20531;-84
2021/07/13 11:50:35;;;;;;;8.77;8.03;;;30.80;83.50;;;;;;5037920;28;20442;-84
2021/07/13 11:53:20;;;;;;;7.80;7.20;;;30.70;84.70;;;;;;5040464;28;20535;-84
2021/07/13 11:55:56;;;;;;;8.63;7.93;;;30.60;83.90;;;;;;5030177;28;20464;-84
2021/07/13 11:58:26;;;;;;;8.33;7.67;;;30.40;85.60;;;;;;5027036;28;20438;-85
2021/07/13 12:00:55;;;;;;;9.33;7.80;;;30.50;85.40;;;;;;5032644;28;20535;-85
2021/07/13 12:03:29;;;;;;;9.03;8.20;;;30.20;86.30;;;;;;5025563;28;20497;-84
2021/07/13 12:06:11;;;;;;;8.63;7.70;;;30.30;86.30;;;;;;5032493;28;20557;-85
2021/07/13 12:08:39;;;;;;;8.53;7.83;;;30.00;87.10;;;;;;5022722;28;20459;-84
2021/07/13 12:11:06;;;;;;;8.53;7.83;;;29.80;87.90;;;;;;5032174;28;20450;-84
2021/07/13 12:13:34;;;;;;;9.20;8.50;;;29.80;88.20;;;;;;5025885;28;20456;-84
2021/07/13 12:16:22;;;;;;;8.40;7.80;;;29.60;87.50;;;;;;5044357;28;20476;-84
2021/07/13 12:18:51;;;;;;;9.07;8.10;;;29.50;88.60;;;;;;5046003;28;20439;-85
2021/07/13 12:21:18;;;;;;;8.77;7.87;;;29.30;89.90;;;;;;5042530;28;20494;-84
2021/07/13 12:23:48;;;;;;;10.07;8.03;;;29.20;90.20;;;;;;5040647;28;20475;-83
2021/07/13 12:26:21;;;;;;;9.50;8.60;;;29.10;90.60;;;;;;5053770;28;20462;-85
2021/07/13 12:29:05;;;;;;;9.80;9.00;;;29.20;90.30;;;;;;5040488;28;20447;-84
2021/07/13 12:31:35;;;;;;;10.13;9.07;;;29.20;90.40;;;;;;5027378;28;20468;-84
2021/07/13 12:34:04;;;;;;;8.20;7.60;;;29.20;90.70;;;;;;5029983;28;20494;-84
2021/07/13 12:36:38;;;;;;;10.07;8.87;;;29.10;91.00;;;;;;5026246;28;20932;-83
2021/07/13 12:39:17;;;;;;;8.70;8.00;;;29.10;91.20;;;;;;5036253;28;20458;-83
2021/07/13 12:41:45;;;;;;;9.10;8.40;;;29.10;91.50;;;;;;5031872;28;20881;-86
2021/07/13 12:44:28;;;;;;;9.60;8.80;;;29.20;91.10;;;;;;5035455;28;20534;-83
2021/07/13 12:47:24;;;;;;;9.07;8.30;;;29.20;91.30;;;;;;5034058;28;20470;-86
2021/07/13 12:50:25;;;;;;;9.53;8.73;;;29.20;90.90;;;;;;5029690;28;20453;-83
2021/07/13 12:52:59;;;;;;;12.47;8.40;;;29.20;91.20;;;;;;4979792;28;21137;-83